sensor_id;sensor_type;location;lat;lon;timestamp;temperature;humidity
17080;DHT22;8655;57.106;-2.088;2022-09-01T00:02:13;20.50;61.70
17080;DHT22;8655;57.106;-2.088;2022-09-01T00:04:42;20.50;61.60
17080;DHT22;8655;57.106;-2.088;2022-09-01T00:07:10;20.50;61.70
17080;DHT22;8655;57.106;-2.088;2022-09-01T00:09:37;20.50;61.70
17080;DHT22;8655;57.106;-2.088;2022-09-01T00:12:06;20.50;61.60
17080;DHT22;8655;57.106;-2.088;2022-09-01T00:14:35;20.50;61.70
17080;DHT22;8655;57.106;-2.088;2022-09-01T00:17:04;20.50;61.70
17080;DHT22;8655;57.106;-2.088;2022-09-01T00:19:31;20.50;61.70
17080;DHT22;8655;57.106;-2.088;2022-09-01T00:21:58;20.50;61.70
17080;DHT22;8655;57.106;-2.088;2022-09-01T00:24:25;20.50;61.70
17080;DHT22;8655;57.106;-2.088;2022-09-01T00:26:51;20.50;61.70
17080;DHT22;8655;57.106;-2.088;2022-09-01T00:29:17;20.50;61.70
17080;DHT22;8655;57.106;-2.088;2022-09-01T00:31:43;20.50;61.70
17080;DHT22;8655;57.106;-2.088;2022-09-01T00:34:09;20.50;61.70
17080;DHT22;8655;57.106;-2.088;2022-09-01T00:36:35;20.50;61.70
17080;DHT22;8655;57.106;-2.088;2022-09-01T00:39:03;20.40;61.60
17080;DHT22;8655;57.106;-2.088;2022-09-01T00:41:31;20.50;61.70
17080;DHT22;8655;57.106;-2.088;2022-09-01T00:43:59;20.50;61.70
17080;DHT22;8655;57.106;-2.088;2022-09-01T00:46:32;20.50;61.70
17080;DHT22;8655;57.106;-2.088;2022-09-01T00:49:12;20.40;61.60
17080;DHT22;8655;57.106;-2.088;2022-09-01T00:51:41;20.40;61.60
17080;DHT22;8655;57.106;-2.088;2022-09-01T00:54:11;20.40;61.60
17080;DHT22;8655;57.106;-2.088;2022-09-01T00:56:40;20.50;61.70
17080;DHT22;8655;57.106;-2.088;2022-09-01T00:59:07;20.50;61.70
17080;DHT22;8655;57.106;-2.088;2022-09-01T01:01:34;20.40;61.60
17080;DHT22;8655;57.106;-2.088;2022-09-01T01:04:02;20.40;61.60
17080;DHT22;8655;57.106;-2.088;2022-09-01T01:06:28;20.40;61.60
17080;DHT22;8655;57.106;-2.088;2022-09-01T01:08:56;20.40;61.60
17080;DHT22;8655;57.106;-2.088;2022-09-01T01:11:26;20.40;61.60
17080;DHT22;8655;57.106;-2.088;2022-09-01T01:16:19;20.40;61.60
17080;DHT22;8655;57.106;-2.088;2022-09-01T01:18:45;20.40;61.60
17080;DHT22;8655;57.106;-2.088;2022-09-01T01:21:23;20.40;61.70
17080;DHT22;8655;57.106;-2.088;2022-09-01T01:24:26;20.40;61.70
17080;DHT22;8655;57.106;-2.088;2022-09-01T01:26:53;20.40;61.60
17080;DHT22;8655;57.106;-2.088;2022-09-01T01:29:21;20.40;61.60
17080;DHT22;8655;57.106;-2.088;2022-09-01T01:31:48;20.40;61.60
17080;DHT22;8655;57.106;-2.088;2022-09-01T01:34:16;20.40;61.60
17080;DHT22;8655;57.106;-2.088;2022-09-01T01:36:45;20.40;61.60
17080;DHT22;8655;57.106;-2.088;2022-09-01T01:39:22;20.40;61.60
17080;DHT22;8655;57.106;-2.088;2022-09-01T01:41:51;20.30;61.50
17080;DHT22;8655;57.106;-2.088;2022-09-01T01:44:20;20.40;61.70
17080;DHT22;8655;57.106;-2.088;2022-09-01T01:46:50;20.40;61.70
17080;DHT22;8655;57.106;-2.088;2022-09-01T01:49:20;20.30;61.60
17080;DHT22;8655;57.106;-2.088;2022-09-01T01:51:51;20.40;61.60
17080;DHT22;8655;57.106;-2.088;2022-09-01T01:54:21;20.40;61.60
17080;DHT22;8655;57.106;-2.088;2022-09-01T01:56:48;20.30;61.50
17080;DHT22;8655;57.106;-2.088;2022-09-01T01:59:13;20.30;61.50
17080;DHT22;8655;57.106;-2.088;2022-09-01T02:01:43;20.30;61.60
17080;DHT22;8655;57.106;-2.088;2022-09-01T02:04:17;20.40;61.70
17080;DHT22;8655;57.106;-2.088;2022-09-01T02:06:44;20.30;61.60
17080;DHT22;8655;57.106;-2.088;2022-09-01T02:09:13;20.30;61.60
17080;DHT22;8655;57.106;-2.088;2022-09-01T02:11:40;20.30;61.60
17080;DHT22;8655;57.106;-2.088;2022-09-01T02:14:07;20.30;61.60
17080;DHT22;8655;57.106;-2.088;2022-09-01T02:16:35;20.30;61.60
17080;DHT22;8655;57.106;-2.088;2022-09-01T02:19:03;20.30;61.50
17080;DHT22;8655;57.106;-2.088;2022-09-01T02:21:31;20.30;61.50
17080;DHT22;8655;57.106;-2.088;2022-09-01T02:23:59;20.30;61.50
17080;DHT22;8655;57.106;-2.088;2022-09-01T02:26:28;20.30;61.50
17080;DHT22;8655;57.106;-2.088;2022-09-01T02:28:57;20.30;61.50
17080;DHT22;8655;57.106;-2.088;2022-09-01T02:31:26;20.30;61.60
17080;DHT22;8655;57.106;-2.088;2022-09-01T02:33:52;20.30;61.60
17080;DHT22;8655;57.106;-2.088;2022-09-01T02:36:18;20.30;61.60
17080;DHT22;8655;57.106;-2.088;2022-09-01T02:38:46;20.30;61.60
17080;DHT22;8655;57.106;-2.088;2022-09-01T02:41:14;20.30;61.50
17080;DHT22;8655;57.106;-2.088;2022-09-01T02:43:45;20.30;61.60
17080;DHT22;8655;57.106;-2.088;2022-09-01T02:46:12;20.30;61.60
17080;DHT22;8655;57.106;-2.088;2022-09-01T02:48:41;20.20;61.40
17080;DHT22;8655;57.106;-2.088;2022-09-01T02:51:10;20.30;61.50
17080;DHT22;8655;57.106;-2.088;2022-09-01T02:53:37;20.20;61.40
17080;DHT22;8655;57.106;-2.088;2022-09-01T02:56:05;20.20;61.40
17080;DHT22;8655;57.106;-2.088;2022-09-01T02:58:34;20.20;61.40
17080;DHT22;8655;57.106;-2.088;2022-09-01T03:01:11;20.20;61.40
17080;DHT22;8655;57.106;-2.088;2022-09-01T03:03:37;20.20;61.40
17080;DHT22;8655;57.106;-2.088;2022-09-01T03:06:03;20.20;61.40
17080;DHT22;8655;57.106;-2.088;2022-09-01T03:08:33;20.20;61.40
17080;DHT22;8655;57.106;-2.088;2022-09-01T03:11:01;20.20;61.40
17080;DHT22;8655;57.106;-2.088;2022-09-01T03:13:27;20.20;61.40
17080;DHT22;8655;57.106;-2.088;2022-09-01T03:15:53;20.20;61.40
17080;DHT22;8655;57.106;-2.088;2022-09-01T03:18:19;20.20;61.40
17080;DHT22;8655;57.106;-2.088;2022-09-01T03:20:46;20.20;61.40
17080;DHT22;8655;57.106;-2.088;2022-09-01T03:23:15;20.20;61.40
17080;DHT22;8655;57.106;-2.088;2022-09-01T03:25:42;20.20;61.40
17080;DHT22;8655;57.106;-2.088;2022-09-01T03:28:08;20.20;61.40
17080;DHT22;8655;57.106;-2.088;2022-09-01T03:30:36;20.20;61.40
17080;DHT22;8655;57.106;-2.088;2022-09-01T03:33:05;20.20;61.40
17080;DHT22;8655;57.106;-2.088;2022-09-01T03:35:32;20.20;61.40
17080;DHT22;8655;57.106;-2.088;2022-09-01T03:37:59;20.20;61.40
17080;DHT22;8655;57.106;-2.088;2022-09-01T03:40:35;20.20;61.40
17080;DHT22;8655;57.106;-2.088;2022-09-01T03:43:03;20.20;61.40
17080;DHT22;8655;57.106;-2.088;2022-09-01T03:45:30;20.10;61.30
17080;DHT22;8655;57.106;-2.088;2022-09-01T03:47:59;20.10;61.30
17080;DHT22;8655;57.106;-2.088;2022-09-01T03:50:26;20.10;61.30
17080;DHT22;8655;57.106;-2.088;2022-09-01T03:52:55;20.10;61.30
17080;DHT22;8655;57.106;-2.088;2022-09-01T03:55:26;20.10;61.30
17080;DHT22;8655;57.106;-2.088;2022-09-01T03:57:55;20.10;61.30
17080;DHT22;8655;57.106;-2.088;2022-09-01T04:00:24;20.10;61.20
17080;DHT22;8655;57.106;-2.088;2022-09-01T04:02:52;20.10;61.30
17080;DHT22;8655;57.106;-2.088;2022-09-01T04:05:21;20.10;61.30
17080;DHT22;8655;57.106;-2.088;2022-09-01T04:07:49;20.10;61.20
17080;DHT22;8655;57.106;-2.088;2022-09-01T04:10:18;20.10;61.30
17080;DHT22;8655;57.106;-2.088;2022-09-01T04:12:44;20.10;61.30
17080;DHT22;8655;57.106;-2.088;2022-09-01T04:15:12;20.10;61.30
17080;DHT22;8655;57.106;-2.088;2022-09-01T04:17:38;20.10;61.20
17080;DHT22;8655;57.106;-2.088;2022-09-01T04:20:23;20.10;61.20
17080;DHT22;8655;57.106;-2.088;2022-09-01T04:22:49;20.10;61.20
17080;DHT22;8655;57.106;-2.088;2022-09-01T04:25:16;20.10;61.20
17080;DHT22;8655;57.106;-2.088;2022-09-01T04:27:48;20.10;61.20
17080;DHT22;8655;57.106;-2.088;2022-09-01T04:30:14;20.10;61.20
17080;DHT22;8655;57.106;-2.088;2022-09-01T04:32:40;20.10;61.30
17080;DHT22;8655;57.106;-2.088;2022-09-01T04:35:08;20.10;61.30
17080;DHT22;8655;57.106;-2.088;2022-09-01T04:37:36;20.10;61.20
17080;DHT22;8655;57.106;-2.088;2022-09-01T04:40:03;20.10;61.20
17080;DHT22;8655;57.106;-2.088;2022-09-01T04:42:30;20.00;61.20
17080;DHT22;8655;57.106;-2.088;2022-09-01T04:44:57;20.00;61.20
17080;DHT22;8655;57.106;-2.088;2022-09-01T04:47:25;20.00;61.20
17080;DHT22;8655;57.106;-2.088;2022-09-01T04:49:55;20.00;61.20
17080;DHT22;8655;57.106;-2.088;2022-09-01T04:52:23;20.00;61.20
17080;DHT22;8655;57.106;-2.088;2022-09-01T04:54:49;20.00;61.20
17080;DHT22;8655;57.106;-2.088;2022-09-01T04:57:15;20.00;61.20
17080;DHT22;8655;57.106;-2.088;2022-09-01T04:59:41;20.00;61.20
17080;DHT22;8655;57.106;-2.088;2022-09-01T05:02:08;20.00;61.10
17080;DHT22;8655;57.106;-2.088;2022-09-01T05:04:34;20.00;61.20
17080;DHT22;8655;57.106;-2.088;2022-09-01T05:07:01;20.00;61.10
17080;DHT22;8655;57.106;-2.088;2022-09-01T05:09:30;20.00;61.10
17080;DHT22;8655;57.106;-2.088;2022-09-01T05:11:57;20.00;61.10
17080;DHT22;8655;57.106;-2.088;2022-09-01T05:14:39;20.00;61.10
17080;DHT22;8655;57.106;-2.088;2022-09-01T05:17:07;20.00;61.20
17080;DHT22;8655;57.106;-2.088;2022-09-01T05:19:40;20.00;61.10
17080;DHT22;8655;57.106;-2.088;2022-09-01T05:22:08;20.00;61.10
17080;DHT22;8655;57.106;-2.088;2022-09-01T05:24:35;19.90;61.00
17080;DHT22;8655;57.106;-2.088;2022-09-01T05:27:03;20.00;61.10
17080;DHT22;8655;57.106;-2.088;2022-09-01T05:29:29;19.90;61.00
17080;DHT22;8655;57.106;-2.088;2022-09-01T05:31:56;19.90;61.00
17080;DHT22;8655;57.106;-2.088;2022-09-01T05:34:23;19.90;61.00
17080;DHT22;8655;57.106;-2.088;2022-09-01T05:36:57;19.90;61.00
17080;DHT22;8655;57.106;-2.088;2022-09-01T05:39:25;19.90;61.00
17080;DHT22;8655;57.106;-2.088;2022-09-01T05:41:51;19.90;61.00
17080;DHT22;8655;57.106;-2.088;2022-09-01T05:44:19;19.90;61.00
17080;DHT22;8655;57.106;-2.088;2022-09-01T05:46:48;19.90;61.00
17080;DHT22;8655;57.106;-2.088;2022-09-01T05:49:14;19.90;61.00
17080;DHT22;8655;57.106;-2.088;2022-09-01T05:51:45;19.90;60.90
17080;DHT22;8655;57.106;-2.088;2022-09-01T05:54:15;19.90;60.90
17080;DHT22;8655;57.106;-2.088;2022-09-01T05:56:41;19.90;60.90
17080;DHT22;8655;57.106;-2.088;2022-09-01T05:59:08;19.90;61.00
17080;DHT22;8655;57.106;-2.088;2022-09-01T06:01:36;19.90;60.90
17080;DHT22;8655;57.106;-2.088;2022-09-01T06:04:06;19.90;61.00
17080;DHT22;8655;57.106;-2.088;2022-09-01T06:06:47;19.90;60.90
17080;DHT22;8655;57.106;-2.088;2022-09-01T06:09:15;19.90;61.00
17080;DHT22;8655;57.106;-2.088;2022-09-01T06:11:45;19.90;61.00
17080;DHT22;8655;57.106;-2.088;2022-09-01T06:14:12;19.90;61.00
17080;DHT22;8655;57.106;-2.088;2022-09-01T06:16:40;19.90;60.90
17080;DHT22;8655;57.106;-2.088;2022-09-01T06:19:06;19.90;61.00
17080;DHT22;8655;57.106;-2.088;2022-09-01T06:21:32;19.90;61.00
17080;DHT22;8655;57.106;-2.088;2022-09-01T06:23:59;19.80;60.90
17080;DHT22;8655;57.106;-2.088;2022-09-01T06:26:26;19.80;60.80
17080;DHT22;8655;57.106;-2.088;2022-09-01T06:28:59;19.80;60.80
17080;DHT22;8655;57.106;-2.088;2022-09-01T06:31:27;19.80;60.80
17080;DHT22;8655;57.106;-2.088;2022-09-01T06:33:54;19.90;60.90
17080;DHT22;8655;57.106;-2.088;2022-09-01T06:36:23;19.80;60.80
17080;DHT22;8655;57.106;-2.088;2022-09-01T06:38:51;19.80;60.80
17080;DHT22;8655;57.106;-2.088;2022-09-01T06:41:18;19.80;60.80
17080;DHT22;8655;57.106;-2.088;2022-09-01T06:43:48;19.80;60.80
17080;DHT22;8655;57.106;-2.088;2022-09-01T06:46:18;19.80;60.80
17080;DHT22;8655;57.106;-2.088;2022-09-01T06:48:46;19.80;60.80
17080;DHT22;8655;57.106;-2.088;2022-09-01T06:51:14;19.80;60.80
17080;DHT22;8655;57.106;-2.088;2022-09-01T06:53:41;19.80;60.80
17080;DHT22;8655;57.106;-2.088;2022-09-01T06:56:08;19.80;60.80
17080;DHT22;8655;57.106;-2.088;2022-09-01T06:58:39;19.80;60.80
17080;DHT22;8655;57.106;-2.088;2022-09-01T07:01:09;19.80;60.80
17080;DHT22;8655;57.106;-2.088;2022-09-01T07:03:45;19.80;60.80
17080;DHT22;8655;57.106;-2.088;2022-09-01T07:06:12;19.80;60.80
17080;DHT22;8655;57.106;-2.088;2022-09-01T07:08:39;19.80;60.80
17080;DHT22;8655;57.106;-2.088;2022-09-01T07:11:16;19.80;60.80
17080;DHT22;8655;57.106;-2.088;2022-09-01T07:13:50;19.80;60.90
17080;DHT22;8655;57.106;-2.088;2022-09-01T07:16:19;19.80;60.80
17080;DHT22;8655;57.106;-2.088;2022-09-01T07:18:52;19.70;60.70
17080;DHT22;8655;57.106;-2.088;2022-09-01T07:21:19;19.80;60.80
17080;DHT22;8655;57.106;-2.088;2022-09-01T07:23:45;19.70;60.70
17080;DHT22;8655;57.106;-2.088;2022-09-01T07:26:12;19.70;60.70
17080;DHT22;8655;57.106;-2.088;2022-09-01T07:28:46;19.70;60.70
17080;DHT22;8655;57.106;-2.088;2022-09-01T07:31:21;19.70;60.70
17080;DHT22;8655;57.106;-2.088;2022-09-01T07:33:49;19.80;60.90
17080;DHT22;8655;57.106;-2.088;2022-09-01T07:36:19;19.80;60.90
17080;DHT22;8655;57.106;-2.088;2022-09-01T07:38:45;19.70;60.80
17080;DHT22;8655;57.106;-2.088;2022-09-01T07:41:16;19.80;60.90
17080;DHT22;8655;57.106;-2.088;2022-09-01T07:43:42;19.70;60.70
17080;DHT22;8655;57.106;-2.088;2022-09-01T07:46:10;19.70;60.80
17080;DHT22;8655;57.106;-2.088;2022-09-01T07:48:36;19.70;60.80
17080;DHT22;8655;57.106;-2.088;2022-09-01T07:51:03;19.70;60.80
17080;DHT22;8655;57.106;-2.088;2022-09-01T07:53:32;19.80;60.90
17080;DHT22;8655;57.106;-2.088;2022-09-01T07:56:04;19.70;60.80
17080;DHT22;8655;57.106;-2.088;2022-09-01T07:58:32;19.70;60.80
17080;DHT22;8655;57.106;-2.088;2022-09-01T08:00:58;19.70;60.80
17080;DHT22;8655;57.106;-2.088;2022-09-01T08:03:28;19.70;60.80
17080;DHT22;8655;57.106;-2.088;2022-09-01T08:05:54;19.70;60.80
17080;DHT22;8655;57.106;-2.088;2022-09-01T08:08:25;19.70;60.80
17080;DHT22;8655;57.106;-2.088;2022-09-01T08:10:51;19.70;60.80
17080;DHT22;8655;57.106;-2.088;2022-09-01T08:13:17;19.70;60.80
17080;DHT22;8655;57.106;-2.088;2022-09-01T08:15:43;19.70;60.80
17080;DHT22;8655;57.106;-2.088;2022-09-01T08:18:09;19.70;60.80
17080;DHT22;8655;57.106;-2.088;2022-09-01T08:20:38;19.70;60.80
17080;DHT22;8655;57.106;-2.088;2022-09-01T08:23:10;19.70;60.90
17080;DHT22;8655;57.106;-2.088;2022-09-01T08:25:38;19.70;60.80
17080;DHT22;8655;57.106;-2.088;2022-09-01T08:28:04;19.70;61.60
17080;DHT22;8655;57.106;-2.088;2022-09-01T08:30:31;19.70;60.90
17080;DHT22;8655;57.106;-2.088;2022-09-01T08:32:57;19.70;60.90
17080;DHT22;8655;57.106;-2.088;2022-09-01T08:35:23;19.70;60.90
17080;DHT22;8655;57.106;-2.088;2022-09-01T08:37:49;19.70;60.90
17080;DHT22;8655;57.106;-2.088;2022-09-01T08:40:17;19.70;60.90
17080;DHT22;8655;57.106;-2.088;2022-09-01T08:45:45;19.70;60.90
17080;DHT22;8655;57.106;-2.088;2022-09-01T08:48:37;19.70;60.90
17080;DHT22;8655;57.106;-2.088;2022-09-01T08:51:38;19.70;60.90
17080;DHT22;8655;57.106;-2.088;2022-09-01T08:57:06;19.70;60.90
17080;DHT22;8655;57.106;-2.088;2022-09-01T08:59:33;19.70;60.90
17080;DHT22;8655;57.106;-2.088;2022-09-01T09:10:31;19.70;60.90
17080;DHT22;8655;57.106;-2.088;2022-09-01T09:13:11;19.70;60.90
17080;DHT22;8655;57.106;-2.088;2022-09-01T09:15:51;19.70;60.90
17080;DHT22;8655;57.106;-2.088;2022-09-01T09:18:42;19.70;60.90
17080;DHT22;8655;57.106;-2.088;2022-09-01T09:21:33;19.70;60.90
17080;DHT22;8655;57.106;-2.088;2022-09-01T09:26:55;19.80;61.10
17080;DHT22;8655;57.106;-2.088;2022-09-01T09:29:21;19.70;60.90
17080;DHT22;8655;57.106;-2.088;2022-09-01T09:31:48;19.80;61.10
17080;DHT22;8655;57.106;-2.088;2022-09-01T09:34:38;19.80;61.10
17080;DHT22;8655;57.106;-2.088;2022-09-01T09:37:28;19.80;61.10
17080;DHT22;8655;57.106;-2.088;2022-09-01T09:40:24;19.80;61.10
17080;DHT22;8655;57.106;-2.088;2022-09-01T09:47:48;19.80;61.10
17080;DHT22;8655;57.106;-2.088;2022-09-01T09:50:24;19.80;61.10
17080;DHT22;8655;57.106;-2.088;2022-09-01T09:52:52;19.80;61.10
17080;DHT22;8655;57.106;-2.088;2022-09-01T09:57:50;19.80;61.20
17080;DHT22;8655;57.106;-2.088;2022-09-01T10:00:28;19.80;61.20
17080;DHT22;8655;57.106;-2.088;2022-09-01T10:02:57;19.80;61.20
17080;DHT22;8655;57.106;-2.088;2022-09-01T10:05:37;19.80;61.20
17080;DHT22;8655;57.106;-2.088;2022-09-01T10:08:10;19.80;61.20
17080;DHT22;8655;57.106;-2.088;2022-09-01T10:10:49;19.80;61.20
17080;DHT22;8655;57.106;-2.088;2022-09-01T10:13:22;19.90;61.30
17080;DHT22;8655;57.106;-2.088;2022-09-01T10:16:01;19.80;61.20
17080;DHT22;8655;57.106;-2.088;2022-09-01T10:18:40;19.90;62.00
17080;DHT22;8655;57.106;-2.088;2022-09-01T10:21:14;19.90;61.30
17080;DHT22;8655;57.106;-2.088;2022-09-01T10:23:40;19.90;61.30
17080;DHT22;8655;57.106;-2.088;2022-09-01T10:26:32;19.90;61.30
17080;DHT22;8655;57.106;-2.088;2022-09-01T10:29:08;19.90;61.30
17080;DHT22;8655;57.106;-2.088;2022-09-01T10:31:35;19.90;61.40
17080;DHT22;8655;57.106;-2.088;2022-09-01T10:34:03;19.90;61.40
17080;DHT22;8655;57.106;-2.088;2022-09-01T10:36:31;19.90;61.40
17080;DHT22;8655;57.106;-2.088;2022-09-01T10:38:57;19.90;61.40
17080;DHT22;8655;57.106;-2.088;2022-09-01T10:44:08;19.90;61.40
17080;DHT22;8655;57.106;-2.088;2022-09-01T10:49:00;19.90;61.40
17080;DHT22;8655;57.106;-2.088;2022-09-01T10:53:53;20.00;61.60
17080;DHT22;8655;57.106;-2.088;2022-09-01T10:56:37;20.00;61.60
17080;DHT22;8655;57.106;-2.088;2022-09-01T10:59:10;20.00;61.60
17080;DHT22;8655;57.106;-2.088;2022-09-01T11:07:28;20.00;61.60
17080;DHT22;8655;57.106;-2.088;2022-09-01T11:10:21;20.00;61.60
17080;DHT22;8655;57.106;-2.088;2022-09-01T11:15:42;20.00;61.70
17080;DHT22;8655;57.106;-2.088;2022-09-01T11:18:16;20.00;61.70
17080;DHT22;8655;57.106;-2.088;2022-09-01T11:20:47;20.00;61.70
17080;DHT22;8655;57.106;-2.088;2022-09-01T11:23:26;20.10;61.80
17080;DHT22;8655;57.106;-2.088;2022-09-01T11:25:58;20.10;61.90
17080;DHT22;8655;57.106;-2.088;2022-09-01T11:36:51;20.10;61.90
17080;DHT22;8655;57.106;-2.088;2022-09-01T11:44:43;20.10;61.90
17080;DHT22;8655;57.106;-2.088;2022-09-01T11:49:59;20.20;62.10
17080;DHT22;8655;57.106;-2.088;2022-09-01T11:52:37;20.20;62.10
17080;DHT22;8655;57.106;-2.088;2022-09-01T11:55:04;20.20;62.10
17080;DHT22;8655;57.106;-2.088;2022-09-01T11:57:33;20.20;62.10
17080;DHT22;8655;57.106;-2.088;2022-09-01T12:00:04;20.20;62.20
17080;DHT22;8655;57.106;-2.088;2022-09-01T12:02:33;20.20;62.20
17080;DHT22;8655;57.106;-2.088;2022-09-01T12:05:01;20.20;62.20
17080;DHT22;8655;57.106;-2.088;2022-09-01T12:07:44;20.20;62.20
17080;DHT22;8655;57.106;-2.088;2022-09-01T12:12:44;20.30;62.40
17080;DHT22;8655;57.106;-2.088;2022-09-01T12:15:22;20.30;62.30
17080;DHT22;8655;57.106;-2.088;2022-09-01T12:17:48;20.30;62.40
17080;DHT22;8655;57.106;-2.088;2022-09-01T12:22:44;20.30;62.40
17080;DHT22;8655;57.106;-2.088;2022-09-01T12:25:29;20.30;62.40
17080;DHT22;8655;57.106;-2.088;2022-09-01T12:27:58;20.30;62.50
17080;DHT22;8655;57.106;-2.088;2022-09-01T12:30:25;20.30;62.40
17080;DHT22;8655;57.106;-2.088;2022-09-01T12:32:52;20.30;62.50
17080;DHT22;8655;57.106;-2.088;2022-09-01T12:35:23;20.30;62.50
17080;DHT22;8655;57.106;-2.088;2022-09-01T12:37:50;20.30;62.50
17080;DHT22;8655;57.106;-2.088;2022-09-01T12:40:34;20.30;62.50
17080;DHT22;8655;57.106;-2.088;2022-09-01T12:43:00;20.40;62.70
17080;DHT22;8655;57.106;-2.088;2022-09-01T12:45:40;20.40;63.30
17080;DHT22;8655;57.106;-2.088;2022-09-01T12:48:06;20.40;62.70
17080;DHT22;8655;57.106;-2.088;2022-09-01T12:50:34;20.40;62.70
17080;DHT22;8655;57.106;-2.088;2022-09-01T12:53:03;20.40;62.70
17080;DHT22;8655;57.106;-2.088;2022-09-01T12:55:38;20.40;62.70
17080;DHT22;8655;57.106;-2.088;2022-09-01T12:58:06;20.40;62.70
17080;DHT22;8655;57.106;-2.088;2022-09-01T13:00:35;20.40;62.70
17080;DHT22;8655;57.106;-2.088;2022-09-01T13:05:34;20.40;62.80
17080;DHT22;8655;57.106;-2.088;2022-09-01T13:08:03;20.50;62.90
17080;DHT22;8655;57.106;-2.088;2022-09-01T13:13:11;20.50;62.90
17080;DHT22;8655;57.106;-2.088;2022-09-01T13:15:43;20.50;62.90
17080;DHT22;8655;57.106;-2.088;2022-09-01T13:18:10;20.50;63.00
17080;DHT22;8655;57.106;-2.088;2022-09-01T13:20:37;20.50;63.00
17080;DHT22;8655;57.106;-2.088;2022-09-01T13:23:02;20.50;63.00
17080;DHT22;8655;57.106;-2.088;2022-09-01T13:25:28;20.50;63.00
17080;DHT22;8655;57.106;-2.088;2022-09-01T13:27:54;20.50;63.00
17080;DHT22;8655;57.106;-2.088;2022-09-01T13:30:22;20.60;63.20
17080;DHT22;8655;57.106;-2.088;2022-09-01T13:32:48;20.60;63.20
17080;DHT22;8655;57.106;-2.088;2022-09-01T13:35:17;20.60;63.20
17080;DHT22;8655;57.106;-2.088;2022-09-01T13:37:46;20.60;63.20
17080;DHT22;8655;57.106;-2.088;2022-09-01T13:40:13;20.60;63.20
17080;DHT22;8655;57.106;-2.088;2022-09-01T13:42:42;20.60;63.20
17080;DHT22;8655;57.106;-2.088;2022-09-01T13:45:09;20.60;63.20
17080;DHT22;8655;57.106;-2.088;2022-09-01T13:47:39;20.60;63.30
17080;DHT22;8655;57.106;-2.088;2022-09-01T13:50:06;20.60;63.30
17080;DHT22;8655;57.106;-2.088;2022-09-01T13:52:32;20.60;63.30
17080;DHT22;8655;57.106;-2.088;2022-09-01T13:54:58;20.60;63.40
17080;DHT22;8655;57.106;-2.088;2022-09-01T13:57:23;20.60;63.30
17080;DHT22;8655;57.106;-2.088;2022-09-01T13:59:49;20.70;63.40
17080;DHT22;8655;57.106;-2.088;2022-09-01T14:02:16;20.70;63.40
17080;DHT22;8655;57.106;-2.088;2022-09-01T14:04:41;20.70;63.50
17080;DHT22;8655;57.106;-2.088;2022-09-01T14:07:07;20.70;63.50
17080;DHT22;8655;57.106;-2.088;2022-09-01T14:09:33;20.70;63.50
17080;DHT22;8655;57.106;-2.088;2022-09-01T14:11:59;20.70;63.50
17080;DHT22;8655;57.106;-2.088;2022-09-01T14:14:25;20.70;63.50
17080;DHT22;8655;57.106;-2.088;2022-09-01T14:16:51;20.70;63.60
17080;DHT22;8655;57.106;-2.088;2022-09-01T14:19:17;20.70;63.60
17080;DHT22;8655;57.106;-2.088;2022-09-01T14:21:43;20.70;63.60
17080;DHT22;8655;57.106;-2.088;2022-09-01T14:24:09;20.70;63.60
17080;DHT22;8655;57.106;-2.088;2022-09-01T14:26:34;20.70;63.70
17080;DHT22;8655;57.106;-2.088;2022-09-01T14:29:00;20.80;63.70
17080;DHT22;8655;57.106;-2.088;2022-09-01T14:31:27;20.80;63.70
17080;DHT22;8655;57.106;-2.088;2022-09-01T14:33:54;20.80;63.80
17080;DHT22;8655;57.106;-2.088;2022-09-01T14:36:22;20.80;63.80
17080;DHT22;8655;57.106;-2.088;2022-09-01T14:38:50;20.80;63.80
17080;DHT22;8655;57.106;-2.088;2022-09-01T14:41:17;20.80;63.80
17080;DHT22;8655;57.106;-2.088;2022-09-01T14:43:47;20.80;63.90
17080;DHT22;8655;57.106;-2.088;2022-09-01T14:46:15;20.80;63.80
17080;DHT22;8655;57.106;-2.088;2022-09-01T14:48:41;20.80;63.90
17080;DHT22;8655;57.106;-2.088;2022-09-01T14:51:08;20.80;63.90
17080;DHT22;8655;57.106;-2.088;2022-09-01T14:53:35;20.80;63.90
17080;DHT22;8655;57.106;-2.088;2022-09-01T14:56:01;20.80;63.90
17080;DHT22;8655;57.106;-2.088;2022-09-01T14:58:28;20.90;64.00
17080;DHT22;8655;57.106;-2.088;2022-09-01T15:00:55;20.90;64.00
17080;DHT22;8655;57.106;-2.088;2022-09-01T15:03:22;20.90;64.00
17080;DHT22;8655;57.106;-2.088;2022-09-01T15:05:51;20.90;64.00
17080;DHT22;8655;57.106;-2.088;2022-09-01T15:08:16;20.90;64.10
17080;DHT22;8655;57.106;-2.088;2022-09-01T15:10:42;20.90;64.10
17080;DHT22;8655;57.106;-2.088;2022-09-01T15:13:08;20.90;64.10
17080;DHT22;8655;57.106;-2.088;2022-09-01T15:15:35;20.90;64.10
17080;DHT22;8655;57.106;-2.088;2022-09-01T15:18:01;20.90;64.10
17080;DHT22;8655;57.106;-2.088;2022-09-01T15:20:28;20.90;64.10
17080;DHT22;8655;57.106;-2.088;2022-09-01T15:23:18;20.90;64.10
17080;DHT22;8655;57.106;-2.088;2022-09-01T15:25:45;20.90;64.10
17080;DHT22;8655;57.106;-2.088;2022-09-01T15:28:11;20.90;64.10
17080;DHT22;8655;57.106;-2.088;2022-09-01T15:30:38;21.00;64.30
17080;DHT22;8655;57.106;-2.088;2022-09-01T15:33:06;20.90;64.20
17080;DHT22;8655;57.106;-2.088;2022-09-01T15:35:32;20.90;64.20
17080;DHT22;8655;57.106;-2.088;2022-09-01T15:37:58;20.90;64.20
17080;DHT22;8655;57.106;-2.088;2022-09-01T15:40:25;20.90;64.20
17080;DHT22;8655;57.106;-2.088;2022-09-01T15:42:51;20.90;64.20
17080;DHT22;8655;57.106;-2.088;2022-09-01T15:45:18;20.90;64.20
17080;DHT22;8655;57.106;-2.088;2022-09-01T15:47:45;21.00;64.30
17080;DHT22;8655;57.106;-2.088;2022-09-01T15:50:14;21.00;64.30
17080;DHT22;8655;57.106;-2.088;2022-09-01T15:55:15;21.00;64.40
17080;DHT22;8655;57.106;-2.088;2022-09-01T15:57:41;21.00;64.30
17080;DHT22;8655;57.106;-2.088;2022-09-01T16:00:07;21.00;64.40
17080;DHT22;8655;57.106;-2.088;2022-09-01T16:02:33;21.00;64.40
17080;DHT22;8655;57.106;-2.088;2022-09-01T16:04:59;21.00;64.40
17080;DHT22;8655;57.106;-2.088;2022-09-01T16:07:25;21.00;64.40
17080;DHT22;8655;57.106;-2.088;2022-09-01T16:09:51;21.00;64.40
17080;DHT22;8655;57.106;-2.088;2022-09-01T16:12:23;21.00;64.40
17080;DHT22;8655;57.106;-2.088;2022-09-01T16:14:50;21.00;64.50
17080;DHT22;8655;57.106;-2.088;2022-09-01T16:18:15;21.00;64.50
17080;DHT22;8655;57.106;-2.088;2022-09-01T16:20:24;21.00;64.50
17080;DHT22;8655;57.106;-2.088;2022-09-01T16:23:19;21.00;64.50
17080;DHT22;8655;57.106;-2.088;2022-09-01T16:25:44;21.00;64.50
17080;DHT22;8655;57.106;-2.088;2022-09-01T16:30:50;21.00;64.50
17080;DHT22;8655;57.106;-2.088;2022-09-01T16:33:16;21.00;64.60
17080;DHT22;8655;57.106;-2.088;2022-09-01T16:36:11;21.00;64.60
17080;DHT22;8655;57.106;-2.088;2022-09-01T16:39:11;21.00;64.60
17080;DHT22;8655;57.106;-2.088;2022-09-01T16:41:51;21.00;64.60
17080;DHT22;8655;57.106;-2.088;2022-09-01T16:50:11;21.00;64.60
17080;DHT22;8655;57.106;-2.088;2022-09-01T16:58:34;21.00;64.60
17080;DHT22;8655;57.106;-2.088;2022-09-01T17:06:29;21.10;64.80
17080;DHT22;8655;57.106;-2.088;2022-09-01T17:09:20;21.10;64.80
17080;DHT22;8655;57.106;-2.088;2022-09-01T17:11:54;21.10;64.80
17080;DHT22;8655;57.106;-2.088;2022-09-01T17:14:32;21.10;64.80
17080;DHT22;8655;57.106;-2.088;2022-09-01T17:17:06;21.10;65.60
17080;DHT22;8655;57.106;-2.088;2022-09-01T17:19:33;21.10;64.90